الصفحة الرئيسية
METAR-TAF:

METAR-TAF

مطار :

Sint Eustatius, جزر الأنتيل الهولندية

دائرة عرض: 17-29N, خط طول: 062-59W, ارتفاع: 38 متر

مراقبة الطقس الحالي

تاريخ ووقت الإصدار 59 دقيقة قبل الساعة 12:55UTC
ريح 14 عقدة من الشرق, الاتجاه يتراوح بين الشمال الشرقي و الشرق/الجنوب الشرقي
درجة الحرارة 29°درجة مئوية
الرطوبة 74%
ضغط 1016 hPa

METAR: TNCE 251255Z AUTO 08014KT 050V110 //// // ///////// 29/24 Q1016 RE//

زمن: 09:54 (13:54 UTC)


TAF: مفقودة

أرصاد الطقس والتوقعات من أكثر من 4000 مطار (تقارير الطقس للمطار METAR والتنبؤ بالطقس بالمطارTAF).

المحطات المتاحة هي النقط الصفراء والحمراء على الخريطة.

حرك المؤشر فوق النقطة لمعرفة اسم المحطة.

ثم انقر لمعرفة أرصاد وتوقعات الطقس.

لتغيير الخارطة: اضغط على الأزرار الخضراء مع رمز الصليب الأسود للتكبير. على الزر الأخضر مع شرطة للتصغير، أو على الأسهم الخضراء للخرائط المجاورة.


METAR-TAF: